sensor_id;sensor_type;location;lat;lon;timestamp;pressure;altitude;pressure_sealevel;temperature
6550;BMP280;15142;48.888;9.134;2022-12-04T00:00:43;97817.91;;;2.45
6550;BMP280;15142;48.888;9.134;2022-12-04T00:03:10;97805.56;;;2.44
6550;BMP280;15142;48.888;9.134;2022-12-04T00:05:37;97797.56;;;2.46
6550;BMP280;15142;48.888;9.134;2022-12-04T00:08:04;97797.56;;;2.46
6550;BMP280;15142;48.888;9.134;2022-12-04T00:10:31;97799.09;;;2.47
6550;BMP280;15142;48.888;9.134;2022-12-04T00:12:58;97802.38;;;2.48
6550;BMP280;15142;48.888;9.134;2022-12-04T00:15:24;97793.63;;;2.50
6550;BMP280;15142;48.888;9.134;2022-12-04T00:17:53;97799.75;;;2.54
6550;BMP280;15142;48.888;9.134;2022-12-04T00:20:19;97793.63;;;2.50
6550;BMP280;15142;48.888;9.134;2022-12-04T00:22:47;97788.13;;;2.53
6550;BMP280;15142;48.888;9.134;2022-12-04T00:25:14;97787.50;;;2.46
6550;BMP280;15142;48.888;9.134;2022-12-04T00:27:40;97790.00;;;2.46
6550;BMP280;15142;48.888;9.134;2022-12-04T00:30:08;97782.78;;;2.50
6550;BMP280;15142;48.888;9.134;2022-12-04T00:32:34;97786.16;;;2.55
6550;BMP280;15142;48.888;9.134;2022-12-04T00:35:03;97781.56;;;2.52
6550;BMP280;15142;48.888;9.134;2022-12-04T00:37:29;97776.53;;;2.52
6550;BMP280;15142;48.888;9.134;2022-12-04T00:39:57;97777.59;;;2.56
6550;BMP280;15142;48.888;9.134;2022-12-04T00:42:24;97782.34;;;2.53
6550;BMP280;15142;48.888;9.134;2022-12-04T00:44:50;97775.22;;;2.50
6550;BMP280;15142;48.888;9.134;2022-12-04T00:47:17;97779.94;;;2.46
6550;BMP280;15142;48.888;9.134;2022-12-04T00:49:43;97778.50;;;2.50
6550;BMP280;15142;48.888;9.134;2022-12-04T00:52:11;97771.41;;;2.47
6550;BMP280;15142;48.888;9.134;2022-12-04T00:54:38;97780.06;;;2.51
6550;BMP280;15142;48.888;9.134;2022-12-04T00:57:04;97775.22;;;2.50
6550;BMP280;15142;48.888;9.134;2022-12-04T00:59:31;97787.50;;;2.46
6550;BMP280;15142;48.888;9.134;2022-12-04T01:01:58;97787.94;;;2.44
6550;BMP280;15142;48.888;9.134;2022-12-04T01:04:24;97780.38;;;2.44
6550;BMP280;15142;48.888;9.134;2022-12-04T01:06:51;97776.78;;;2.40
6550;BMP280;15142;48.888;9.134;2022-12-04T01:09:19;97772.28;;;2.42
6550;BMP280;15142;48.888;9.134;2022-12-04T01:11:46;97776.78;;;2.40
6550;BMP280;15142;48.888;9.134;2022-12-04T01:14:13;97783.25;;;2.36
6550;BMP280;15142;48.888;9.134;2022-12-04T01:16:39;97779.31;;;2.40
6550;BMP280;15142;48.888;9.134;2022-12-04T01:19:09;97769.53;;;2.43
6550;BMP280;15142;48.888;9.134;2022-12-04T01:21:36;97769.31;;;2.44
6550;BMP280;15142;48.888;9.134;2022-12-04T01:24:03;97769.88;;;2.46
6550;BMP280;15142;48.888;9.134;2022-12-04T01:26:31;97773.38;;;2.45
6550;BMP280;15142;48.888;9.134;2022-12-04T01:28:58;97765.72;;;2.41
6550;BMP280;15142;48.888;9.134;2022-12-04T01:31:25;97767.34;;;2.35
6550;BMP280;15142;48.888;9.134;2022-12-04T01:33:52;97763.94;;;2.41
6550;BMP280;15142;48.888;9.134;2022-12-04T01:36:20;97769.88;;;2.46
6550;BMP280;15142;48.888;9.134;2022-12-04T01:38:47;97765.38;;;2.48
6550;BMP280;15142;48.888;9.134;2022-12-04T01:41:15;97761.88;;;2.49
6550;BMP280;15142;48.888;9.134;2022-12-04T01:43:44;97764.41;;;2.49
6550;BMP280;15142;48.888;9.134;2022-12-04T01:46:11;97775.03;;;2.51
6550;BMP280;15142;48.888;9.134;2022-12-04T01:48:41;97770.41;;;2.48
6550;BMP280;15142;48.888;9.134;2022-12-04T01:51:14;97766.59;;;2.46
6550;BMP280;15142;48.888;9.134;2022-12-04T01:53:46;97766.69;;;2.51
6550;BMP280;15142;48.888;9.134;2022-12-04T01:56:15;97764.94;;;2.51
6550;BMP280;15142;48.888;9.134;2022-12-04T01:58:47;97757.16;;;2.53
6550;BMP280;15142;48.888;9.134;2022-12-04T02:01:16;97769.00;;;2.52
6550;BMP280;15142;48.888;9.134;2022-12-04T02:03:43;97769.53;;;2.54
6550;BMP280;15142;48.888;9.134;2022-12-04T02:06:10;97771.03;;;2.55
6550;BMP280;15142;48.888;9.134;2022-12-04T02:08:37;97774.06;;;2.57
6550;BMP280;15142;48.888;9.134;2022-12-04T02:11:12;97779.38;;;2.56
6550;BMP280;15142;48.888;9.134;2022-12-04T02:13:50;97770.41;;;2.48
6550;BMP280;15142;48.888;9.134;2022-12-04T02:16:22;97774.91;;;2.46
6550;BMP280;15142;48.888;9.134;2022-12-04T02:18:58;97778.19;;;2.47
6550;BMP280;15142;48.888;9.134;2022-12-04T02:21:29;97777.88;;;2.44
6550;BMP280;15142;48.888;9.134;2022-12-04T02:24:20;97759.47;;;2.43
6550;BMP280;15142;48.888;9.134;2022-12-04T02:26:51;97755.09;;;2.39
6550;BMP280;15142;48.888;9.134;2022-12-04T02:29:28;97751.59;;;2.40
6550;BMP280;15142;48.888;9.134;2022-12-04T02:32:02;97760.00;;;2.45
6550;BMP280;15142;48.888;9.134;2022-12-04T02:34:37;97754.22;;;2.44
6550;BMP280;15142;48.888;9.134;2022-12-04T02:37:09;97750.72;;;2.45
6550;BMP280;15142;48.888;9.134;2022-12-04T02:39:40;97750.47;;;2.47
6550;BMP280;15142;48.888;9.134;2022-12-04T02:42:11;97752.69;;;2.44
6550;BMP280;15142;48.888;9.134;2022-12-04T02:44:43;97757.72;;;2.44
6550;BMP280;15142;48.888;9.134;2022-12-04T02:47:12;97761.56;;;2.46
6550;BMP280;15142;48.888;9.134;2022-12-04T02:49:44;97756.84;;;2.49
6550;BMP280;15142;48.888;9.134;2022-12-04T02:52:13;97742.03;;;2.53
6550;BMP280;15142;48.888;9.134;2022-12-04T02:54:45;97738.97;;;2.51
6550;BMP280;15142;48.888;9.134;2022-12-04T02:57:18;97747.47;;;2.61
6550;BMP280;15142;48.888;9.134;2022-12-04T02:59:49;97744.94;;;2.61
6550;BMP280;15142;48.888;9.134;2022-12-04T03:02:21;97743.31;;;2.67
6550;BMP280;15142;48.888;9.134;2022-12-04T03:04:50;97733.56;;;2.59
6550;BMP280;15142;48.888;9.134;2022-12-04T03:07:23;97731.81;;;2.59
6550;BMP280;15142;48.888;9.134;2022-12-04T03:09:54;97735.41;;;2.63
6550;BMP280;15142;48.888;9.134;2022-12-04T03:12:25;97732.28;;;2.56
6550;BMP280;15142;48.888;9.134;2022-12-04T03:14:58;97729.03;;;2.56
6550;BMP280;15142;48.888;9.134;2022-12-04T03:17:29;97727.78;;;2.58
6550;BMP280;15142;48.888;9.134;2022-12-04T03:20:02;97725.72;;;2.55
6550;BMP280;15142;48.888;9.134;2022-12-04T03:22:30;97729.28;;;2.59
6550;BMP280;15142;48.888;9.134;2022-12-04T03:25:01;97719.47;;;2.58
6550;BMP280;15142;48.888;9.134;2022-12-04T03:27:33;97722.44;;;2.55
6550;BMP280;15142;48.888;9.134;2022-12-04T03:30:04;97721.69;;;2.54
6550;BMP280;15142;48.888;9.134;2022-12-04T03:32:35;97720.69;;;2.55
6550;BMP280;15142;48.888;9.134;2022-12-04T03:35:09;97726.25;;;2.57
6550;BMP280;15142;48.888;9.134;2022-12-04T03:37:40;97724.66;;;2.51
6550;BMP280;15142;48.888;9.134;2022-12-04T03:40:14;97720.69;;;2.55
6550;BMP280;15142;48.888;9.134;2022-12-04T03:42:44;97714.72;;;2.61
6550;BMP280;15142;48.888;9.134;2022-12-04T03:45:18;97714.31;;;2.64
6550;BMP280;15142;48.888;9.134;2022-12-04T03:47:50;97712.31;;;2.66
6550;BMP280;15142;48.888;9.134;2022-12-04T03:50:22;97716.47;;;2.72
6550;BMP280;15142;48.888;9.134;2022-12-04T03:52:57;97702.13;;;2.61
6550;BMP280;15142;48.888;9.134;2022-12-04T03:55:29;97696.69;;;2.64
6550;BMP280;15142;48.888;9.134;2022-12-04T03:58:02;97703.78;;;2.67
6550;BMP280;15142;48.888;9.134;2022-12-04T04:00:31;97712.41;;;2.71
6550;BMP280;15142;48.888;9.134;2022-12-04T04:03:02;97729.69;;;2.79
6550;BMP280;15142;48.888;9.134;2022-12-04T04:05:33;97722.25;;;2.73
6550;BMP280;15142;48.888;9.134;2022-12-04T04:08:01;97716.81;;;2.76
6550;BMP280;15142;48.888;9.134;2022-12-04T04:10:43;97712.94;;;2.73
6550;BMP280;15142;48.888;9.134;2022-12-04T04:13:15;97714.84;;;2.66
6550;BMP280;15142;48.888;9.134;2022-12-04T04:16:04;97716.81;;;2.64
6550;BMP280;15142;48.888;9.134;2022-12-04T04:18:50;97719.75;;;2.61
6550;BMP280;15142;48.888;9.134;2022-12-04T04:21:38;97734.66;;;2.63
6550;BMP280;15142;48.888;9.134;2022-12-04T04:24:29;97735.41;;;2.63
6550;BMP280;15142;48.888;9.134;2022-12-04T04:26:57;97741.34;;;2.69
6550;BMP280;15142;48.888;9.134;2022-12-04T04:29:24;97741.44;;;2.74
6550;BMP280;15142;48.888;9.134;2022-12-04T04:31:58;97742.19;;;2.74
6550;BMP280;15142;48.888;9.134;2022-12-04T04:34:31;97737.91;;;2.75
6550;BMP280;15142;48.888;9.134;2022-12-04T04:37:06;97748.66;;;2.70
6550;BMP280;15142;48.888;9.134;2022-12-04T04:39:37;97739.91;;;2.73
6550;BMP280;15142;48.888;9.134;2022-12-04T04:42:11;97742.75;;;2.76
6550;BMP280;15142;48.888;9.134;2022-12-04T04:44:43;97743.72;;;2.75
6550;BMP280;15142;48.888;9.134;2022-12-04T04:47:17;97742.75;;;2.76
6550;BMP280;15142;48.888;9.134;2022-12-04T04:49:47;97740.44;;;2.75
6550;BMP280;15142;48.888;9.134;2022-12-04T04:52:16;97738.59;;;2.70
6550;BMP280;15142;48.888;9.134;2022-12-04T04:54:45;97730.03;;;2.71
6550;BMP280;15142;48.888;9.134;2022-12-04T04:57:12;97732.56;;;2.71
6550;BMP280;15142;48.888;9.134;2022-12-04T04:59:39;97730.81;;;2.72
6550;BMP280;15142;48.888;9.134;2022-12-04T05:02:05;97736.63;;;2.72
6550;BMP280;15142;48.888;9.134;2022-12-04T05:04:33;97729.59;;;2.74
6550;BMP280;15142;48.888;9.134;2022-12-04T05:07:00;97734.19;;;2.77
6550;BMP280;15142;48.888;9.134;2022-12-04T05:09:26;97739.34;;;2.82
6550;BMP280;15142;48.888;9.134;2022-12-04T05:11:53;97748.88;;;2.80
6550;BMP280;15142;48.888;9.134;2022-12-04T05:14:20;97744.91;;;2.84
6550;BMP280;15142;48.888;9.134;2022-12-04T05:16:46;97738.63;;;2.86
6550;BMP280;15142;48.888;9.134;2022-12-04T05:19:13;97739.56;;;2.80
6550;BMP280;15142;48.888;9.134;2022-12-04T05:21:58;97737.72;;;2.76
6550;BMP280;15142;48.888;9.134;2022-12-04T05:24:25;97738.69;;;2.75
6550;BMP280;15142;48.888;9.134;2022-12-04T05:26:52;97741.75;;;2.77
6550;BMP280;15142;48.888;9.134;2022-12-04T05:29:18;97740.13;;;2.71
6550;BMP280;15142;48.888;9.134;2022-12-04T05:31:45;97735.31;;;2.70
6550;BMP280;15142;48.888;9.134;2022-12-04T05:34:11;97738.25;;;2.67
6550;BMP280;15142;48.888;9.134;2022-12-04T05:36:38;97735.75;;;2.67
6550;BMP280;15142;48.888;9.134;2022-12-04T05:39:06;97736.75;;;2.66
6550;BMP280;15142;48.888;9.134;2022-12-04T05:41:32;97737.59;;;2.71
6550;BMP280;15142;48.888;9.134;2022-12-04T05:43:59;97735.41;;;2.75
6550;BMP280;15142;48.888;9.134;2022-12-04T05:46:26;97731.66;;;2.77
6550;BMP280;15142;48.888;9.134;2022-12-04T05:48:52;97732.75;;;2.81
6550;BMP280;15142;48.888;9.134;2022-12-04T05:51:19;97737.78;;;2.81
6550;BMP280;15142;48.888;9.134;2022-12-04T05:53:45;97740.31;;;2.81
6550;BMP280;15142;48.888;9.134;2022-12-04T05:56:13;97734.28;;;2.82
6550;BMP280;15142;48.888;9.134;2022-12-04T05:58:40;97729.03;;;2.83
6550;BMP280;15142;48.888;9.134;2022-12-04T06:01:08;97730.22;;;2.81
6550;BMP280;15142;48.888;9.134;2022-12-04T06:03:35;97724.97;;;2.82
6550;BMP280;15142;48.888;9.134;2022-12-04T06:06:02;97730.47;;;2.79
6550;BMP280;15142;48.888;9.134;2022-12-04T06:08:29;97727.28;;;2.84
6550;BMP280;15142;48.888;9.134;2022-12-04T06:10:56;97729.25;;;2.82
6550;BMP280;15142;48.888;9.134;2022-12-04T06:13:24;97736.34;;;2.85
6550;BMP280;15142;48.888;9.134;2022-12-04T06:15:50;97745.34;;;2.81
6550;BMP280;15142;48.888;9.134;2022-12-04T06:18:17;97740.31;;;2.81
6550;BMP280;15142;48.888;9.134;2022-12-04T06:20:44;97742.41;;;2.84
6550;BMP280;15142;48.888;9.134;2022-12-04T06:23:10;97733.59;;;2.86
6550;BMP280;15142;48.888;9.134;2022-12-04T06:25:37;97740.63;;;2.84
6550;BMP280;15142;48.888;9.134;2022-12-04T06:28:04;97737.78;;;2.81
6550;BMP280;15142;48.888;9.134;2022-12-04T06:30:33;97733.53;;;2.81
6550;BMP280;15142;48.888;9.134;2022-12-04T06:33:00;97728.59;;;2.75
6550;BMP280;15142;48.888;9.134;2022-12-04T06:35:26;97727.50;;;2.82
6550;BMP280;15142;48.888;9.134;2022-12-04T06:37:53;97728.25;;;2.83
6550;BMP280;15142;48.888;9.134;2022-12-04T06:40:20;97740.38;;;2.86
6550;BMP280;15142;48.888;9.134;2022-12-04T06:42:46;97734.50;;;2.80
6550;BMP280;15142;48.888;9.134;2022-12-04T06:45:13;97727.72;;;2.81
6550;BMP280;15142;48.888;9.134;2022-12-04T06:47:41;97719.84;;;2.78
6550;BMP280;15142;48.888;9.134;2022-12-04T06:50:08;97729.94;;;2.78
6550;BMP280;15142;48.888;9.134;2022-12-04T06:52:34;97730.00;;;2.82
6550;BMP280;15142;48.888;9.134;2022-12-04T06:55:01;97738.34;;;2.83
6550;BMP280;15142;48.888;9.134;2022-12-04T06:57:28;97739.56;;;2.80
6550;BMP280;15142;48.888;9.134;2022-12-04T06:59:54;97738.56;;;2.81
6550;BMP280;15142;48.888;9.134;2022-12-04T07:02:21;97747.44;;;2.84
6550;BMP280;15142;48.888;9.134;2022-12-04T07:04:53;97744.91;;;2.84
6550;BMP280;15142;48.888;9.134;2022-12-04T07:07:20;97741.63;;;2.83
6550;BMP280;15142;48.888;9.134;2022-12-04T07:09:47;97745.34;;;2.81
6550;BMP280;15142;48.888;9.134;2022-12-04T07:12:13;97746.88;;;2.82
6550;BMP280;15142;48.888;9.134;2022-12-04T07:14:40;97740.00;;;2.78
6550;BMP280;15142;48.888;9.134;2022-12-04T07:17:07;97738.78;;;2.80
6550;BMP280;15142;48.888;9.134;2022-12-04T07:19:33;97741.84;;;2.82
6550;BMP280;15142;48.888;9.134;2022-12-04T07:22:01;97749.94;;;2.84
6550;BMP280;15142;48.888;9.134;2022-12-04T07:24:28;97743.38;;;2.83
6550;BMP280;15142;48.888;9.134;2022-12-04T07:26:54;97742.19;;;2.85
6550;BMP280;15142;48.888;9.134;2022-12-04T07:29:21;97741.47;;;2.90
6550;BMP280;15142;48.888;9.134;2022-12-04T07:31:47;97749.94;;;2.84
6550;BMP280;15142;48.888;9.134;2022-12-04T07:34:14;97741.16;;;2.86
6550;BMP280;15142;48.888;9.134;2022-12-04T07:36:41;97736.66;;;2.88
6550;BMP280;15142;48.888;9.134;2022-12-04T07:39:09;97731.94;;;2.92
6550;BMP280;15142;48.888;9.134;2022-12-04T07:41:35;97739.94;;;2.89
6550;BMP280;15142;48.888;9.134;2022-12-04T07:44:05;97738.19;;;2.89
6550;BMP280;15142;48.888;9.134;2022-12-04T07:46:32;97742.00;;;2.92
6550;BMP280;15142;48.888;9.134;2022-12-04T07:48:59;97735.97;;;2.93
6550;BMP280;15142;48.888;9.134;2022-12-04T07:51:26;97735.53;;;2.96
6550;BMP280;15142;48.888;9.134;2022-12-04T07:53:54;97736.63;;;3.00
6550;BMP280;15142;48.888;9.134;2022-12-04T07:56:23;97745.69;;;3.01
6550;BMP280;15142;48.888;9.134;2022-12-04T07:58:50;97743.38;;;2.99
6550;BMP280;15142;48.888;9.134;2022-12-04T08:01:18;97754.81;;;3.02
6550;BMP280;15142;48.888;9.134;2022-12-04T08:03:46;97753.78;;;3.03
6550;BMP280;15142;48.888;9.134;2022-12-04T08:06:14;97766.84;;;3.00
6550;BMP280;15142;48.888;9.134;2022-12-04T08:08:41;97762.56;;;3.00
6550;BMP280;15142;48.888;9.134;2022-12-04T08:11:09;97762.91;;;3.04
6550;BMP280;15142;48.888;9.134;2022-12-04T08:13:37;97758.63;;;3.04
6550;BMP280;15142;48.888;9.134;2022-12-04T08:16:06;97743.94;;;3.01
6550;BMP280;15142;48.888;9.134;2022-12-04T08:18:33;97752.81;;;3.04
6550;BMP280;15142;48.888;9.134;2022-12-04T08:21:04;97748.44;;;2.99
6550;BMP280;15142;48.888;9.134;2022-12-04T08:23:31;97745.38;;;2.97
6550;BMP280;15142;48.888;9.134;2022-12-04T08:25:58;97757.75;;;2.99
6550;BMP280;15142;48.888;9.134;2022-12-04T08:28:26;97744.47;;;3.03
6550;BMP280;15142;48.888;9.134;2022-12-04T08:30:54;97750.91;;;3.11
6550;BMP280;15142;48.888;9.134;2022-12-04T08:33:20;97752.13;;;3.08
6550;BMP280;15142;48.888;9.134;2022-12-04T08:35:47;97750.91;;;3.11
6550;BMP280;15142;48.888;9.134;2022-12-04T08:38:13;97759.47;;;3.10
6550;BMP280;15142;48.888;9.134;2022-12-04T08:40:40;97753.34;;;3.06
6550;BMP280;15142;48.888;9.134;2022-12-04T08:43:07;97755.34;;;3.04
6550;BMP280;15142;48.888;9.134;2022-12-04T08:45:33;97752.72;;;2.99
6550;BMP280;15142;48.888;9.134;2022-12-04T08:48:01;97754.81;;;2.90
6550;BMP280;15142;48.888;9.134;2022-12-04T08:50:27;97765.22;;;2.94
6550;BMP280;15142;48.888;9.134;2022-12-04T08:52:54;97770.56;;;2.97
6550;BMP280;15142;48.888;9.134;2022-12-04T08:55:21;97769.66;;;3.03
6550;BMP280;15142;48.888;9.134;2022-12-04T08:57:49;97767.25;;;3.08
6550;BMP280;15142;48.888;9.134;2022-12-04T09:00:16;97772.31;;;3.08
6550;BMP280;15142;48.888;9.134;2022-12-04T09:02:43;97775.56;;;3.09
6550;BMP280;15142;48.888;9.134;2022-12-04T09:05:11;97789.72;;;3.10
6550;BMP280;15142;48.888;9.134;2022-12-04T09:07:37;97790.69;;;3.09
6550;BMP280;15142;48.888;9.134;2022-12-04T09:10:05;97795.06;;;3.13
6550;BMP280;15142;48.888;9.134;2022-12-04T09:12:31;97783.09;;;3.20
6550;BMP280;15142;48.888;9.134;2022-12-04T09:14:58;97792.94;;;3.21
6550;BMP280;15142;48.888;9.134;2022-12-04T09:17:24;97795.69;;;3.20
6550;BMP280;15142;48.888;9.134;2022-12-04T09:19:51;97791.47;;;3.09
6550;BMP280;15142;48.888;9.134;2022-12-04T09:22:19;97791.59;;;3.03
6550;BMP280;15142;48.888;9.134;2022-12-04T09:24:45;97793.13;;;3.04
6550;BMP280;15142;48.888;9.134;2022-12-04T09:27:12;97782.72;;;3.12
6550;BMP280;15142;48.888;9.134;2022-12-04T09:29:38;97784.34;;;3.06
6550;BMP280;15142;48.888;9.134;2022-12-04T09:32:05;97782.59;;;3.07
6550;BMP280;15142;48.888;9.134;2022-12-04T09:34:31;97778.84;;;3.09
6550;BMP280;15142;48.888;9.134;2022-12-04T09:36:58;97771.06;;;3.11
6550;BMP280;15142;48.888;9.134;2022-12-04T09:39:26;97768.72;;;3.20
6550;BMP280;15142;48.888;9.134;2022-12-04T09:42:14;97756.28;;;3.30
6550;BMP280;15142;48.888;9.134;2022-12-04T09:44:48;97757.72;;;3.26
6550;BMP280;15142;48.888;9.134;2022-12-04T09:47:20;97750.38;;;3.25
6550;BMP280;15142;48.888;9.134;2022-12-04T09:49:50;97749.09;;;3.22
6550;BMP280;15142;48.888;9.134;2022-12-04T09:52:24;97751.16;;;3.25
6550;BMP280;15142;48.888;9.134;2022-12-04T09:54:57;97743.59;;;3.25
6550;BMP280;15142;48.888;9.134;2022-12-04T09:57:31;97721.91;;;3.24
6550;BMP280;15142;48.888;9.134;2022-12-04T10:00:03;97720.94;;;3.25
6550;BMP280;15142;48.888;9.134;2022-12-04T10:02:37;97710.91;;;3.30
6550;BMP280;15142;48.888;9.134;2022-12-04T10:05:06;97707.41;;;3.31
6550;BMP280;15142;48.888;9.134;2022-12-04T10:07:39;97703.44;;;3.35
6550;BMP280;15142;48.888;9.134;2022-12-04T10:10:22;97697.19;;;3.38
6550;BMP280;15142;48.888;9.134;2022-12-04T10:12:57;97700.97;;;3.40
6550;BMP280;15142;48.888;9.134;2022-12-04T10:15:31;97695.91;;;3.40
6550;BMP280;15142;48.888;9.134;2022-12-04T10:18:14;97701.50;;;3.42
6550;BMP280;15142;48.888;9.134;2022-12-04T10:20:53;97691.28;;;3.32
6550;BMP280;15142;48.888;9.134;2022-12-04T10:23:35;97688.81;;;3.37
6550;BMP280;15142;48.888;9.134;2022-12-04T10:26:10;97687.25;;;3.31
6550;BMP280;15142;48.888;9.134;2022-12-04T10:28:40;97690.13;;;3.23
6550;BMP280;15142;48.888;9.134;2022-12-04T10:31:11;97687.50;;;3.18
6550;BMP280;15142;48.888;9.134;2022-12-04T10:33:40;97693.03;;;3.15
6550;BMP280;15142;48.888;9.134;2022-12-04T10:36:11;97684.47;;;3.16
6550;BMP280;15142;48.888;9.134;2022-12-04T10:38:41;97689.34;;;3.23
6550;BMP280;15142;48.888;9.134;2022-12-04T10:41:14;97686.06;;;3.22
6550;BMP280;15142;48.888;9.134;2022-12-04T10:43:45;97687.97;;;3.15
6550;BMP280;15142;48.888;9.134;2022-12-04T10:46:14;97687.84;;;3.22
6550;BMP280;15142;48.888;9.134;2022-12-04T10:48:43;97697.75;;;3.28
6550;BMP280;15142;48.888;9.134;2022-12-04T10:51:14;97704.78;;;3.26
6550;BMP280;15142;48.888;9.134;2022-12-04T10:53:41;97709.63;;;3.28
6550;BMP280;15142;48.888;9.134;2022-12-04T10:56:13;97714.97;;;3.31
6550;BMP280;15142;48.888;9.134;2022-12-04T10:58:42;97710.22;;;3.35
6550;BMP280;15142;48.888;9.134;2022-12-04T11:01:11;97702.38;;;3.31
6550;BMP280;15142;48.888;9.134;2022-12-04T11:03:38;97707.84;;;3.28
6550;BMP280;15142;48.888;9.134;2022-12-04T11:06:07;97709.94;;;3.31
6550;BMP280;15142;48.888;9.134;2022-12-04T11:08:38;97712.53;;;3.36
6550;BMP280;15142;48.888;9.134;2022-12-04T11:11:08;97696.53;;;3.31
6550;BMP280;15142;48.888;9.134;2022-12-04T11:13:37;97693.72;;;3.27
6550;BMP280;15142;48.888;9.134;2022-12-04T11:16:04;97692.19;;;3.26
6550;BMP280;15142;48.888;9.134;2022-12-04T11:18:33;97690.91;;;3.24
6550;BMP280;15142;48.888;9.134;2022-12-04T11:21:02;97695.84;;;3.19
6550;BMP280;15142;48.888;9.134;2022-12-04T11:23:31;97688.44;;;3.29
6550;BMP280;15142;48.888;9.134;2022-12-04T11:25:59;97685.47;;;3.32
6550;BMP280;15142;48.888;9.134;2022-12-04T11:28:29;97685.84;;;3.24
6550;BMP280;15142;48.888;9.134;2022-12-04T11:30:58;97690.13;;;3.23
6550;BMP280;15142;48.888;9.134;2022-12-04T11:33:28;97681.72;;;3.34
6550;BMP280;15142;48.888;9.134;2022-12-04T11:35:59;97691.34;;;3.37
6550;BMP280;15142;48.888;9.134;2022-12-04T11:38:28;97691.81;;;3.34
6550;BMP280;15142;48.888;9.134;2022-12-04T11:40:57;97677.75;;;3.38
6550;BMP280;15142;48.888;9.134;2022-12-04T11:43:26;97674.38;;;3.16
6550;BMP280;15142;48.888;9.134;2022-12-04T11:45:54;97671.56;;;3.13
6550;BMP280;15142;48.888;9.134;2022-12-04T11:48:23;97676.53;;;3.24
6550;BMP280;15142;48.888;9.134;2022-12-04T11:50:57;97686.25;;;3.32
6550;BMP280;15142;48.888;9.134;2022-12-04T11:53:34;97694.88;;;3.36
6550;BMP280;15142;48.888;9.134;2022-12-04T11:56:16;97691.28;;;3.32
6550;BMP280;15142;48.888;9.134;2022-12-04T11:58:51;97684.81;;;3.41
6550;BMP280;15142;48.888;9.134;2022-12-04T12:01:28;97696.91;;;3.39
6550;BMP280;15142;48.888;9.134;2022-12-04T12:04:22;97698.78;;;3.27
6550;BMP280;15142;48.888;9.134;2022-12-04T12:06:57;97694.66;;;3.38
6550;BMP280;15142;48.888;9.134;2022-12-04T12:09:30;97698.66;;;3.39
6550;BMP280;15142;48.888;9.134;2022-12-04T12:12:03;97677.56;;;3.45
6550;BMP280;15142;48.888;9.134;2022-12-04T12:14:36;97676.81;;;3.44
6550;BMP280;15142;48.888;9.134;2022-12-04T12:17:10;97674.59;;;3.47
6550;BMP280;15142;48.888;9.134;2022-12-04T12:19:56;97670.09;;;3.49
6550;BMP280;15142;48.888;9.134;2022-12-04T12:22:37;97669.84;;;3.51
6550;BMP280;15142;48.888;9.134;2022-12-04T12:25:13;97658.63;;;3.58
6550;BMP280;15142;48.888;9.134;2022-12-04T12:27:57;97647.41;;;3.71
6550;BMP280;15142;48.888;9.134;2022-12-04T12:30:28;97645.34;;;3.46
6550;BMP280;15142;48.888;9.134;2022-12-04T12:33:02;97652.81;;;3.58
6550;BMP280;15142;48.888;9.134;2022-12-04T12:35:35;97654.28;;;3.54
6550;BMP280;15142;48.888;9.134;2022-12-04T12:38:06;97649.69;;;3.51
6550;BMP280;15142;48.888;9.134;2022-12-04T12:40:38;97641.56;;;3.49
6550;BMP280;15142;48.888;9.134;2022-12-04T12:43:11;97640.75;;;3.60
6550;BMP280;15142;48.888;9.134;2022-12-04T12:45:43;97646.72;;;3.54
6550;BMP280;15142;48.888;9.134;2022-12-04T12:48:21;97649.34;;;3.64
6550;BMP280;15142;48.888;9.134;2022-12-04T12:50:53;97654.66;;;3.62
6550;BMP280;15142;48.888;9.134;2022-12-04T12:53:24;97654.69;;;3.67
6550;BMP280;15142;48.888;9.134;2022-12-04T12:55:53;97648.75;;;3.57
6550;BMP280;15142;48.888;9.134;2022-12-04T12:58:25;97646.78;;;3.59
6550;BMP280;15142;48.888;9.134;2022-12-04T13:00:56;97637.53;;;3.48
6550;BMP280;15142;48.888;9.134;2022-12-04T13:03:31;97644.41;;;3.52
6550;BMP280;15142;48.888;9.134;2022-12-04T13:06:03;97634.63;;;3.56
6550;BMP280;15142;48.888;9.134;2022-12-04T13:08:34;97633.25;;;3.48
6550;BMP280;15142;48.888;9.134;2022-12-04T13:11:05;97629.97;;;3.48
6550;BMP280;15142;48.888;9.134;2022-12-04T13:13:34;97630.56;;;3.55
6550;BMP280;15142;48.888;9.134;2022-12-04T13:16:05;97628.75;;;3.50
6550;BMP280;15142;48.888;9.134;2022-12-04T13:18:37;97630.50;;;3.50
6550;BMP280;15142;48.888;9.134;2022-12-04T13:21:20;97628.91;;;3.44
6550;BMP280;15142;48.888;9.134;2022-12-04T13:23:58;97627.69;;;3.46
6550;BMP280;15142;48.888;9.134;2022-12-04T13:26:38;97640.59;;;3.50
6550;BMP280;15142;48.888;9.134;2022-12-04T13:29:12;97637.38;;;3.54
6550;BMP280;15142;48.888;9.134;2022-12-04T13:31:45;97651.59;;;3.60
6550;BMP280;15142;48.888;9.134;2022-12-04T13:34:28;97659.69;;;3.62
6550;BMP280;15142;48.888;9.134;2022-12-04T13:37:12;97651.75;;;3.54
6550;BMP280;15142;48.888;9.134;2022-12-04T13:40:15;97656.81;;;3.54
6550;BMP280;15142;48.888;9.134;2022-12-04T13:42:50;97655.72;;;3.50
6550;BMP280;15142;48.888;9.134;2022-12-04T13:45:24;97652.03;;;3.41
6550;BMP280;15142;48.888;9.134;2022-12-04T13:47:56;97663.28;;;3.50
6550;BMP280;15142;48.888;9.134;2022-12-04T13:50:28;97668.34;;;3.50
6550;BMP280;15142;48.888;9.134;2022-12-04T13:52:56;97666.34;;;3.52
6550;BMP280;15142;48.888;9.134;2022-12-04T13:55:28;97657.09;;;3.41
6550;BMP280;15142;48.888;9.134;2022-12-04T13:57:56;97649.50;;;3.36
6550;BMP280;15142;48.888;9.134;2022-12-04T14:00:26;97653.47;;;3.32
6550;BMP280;15142;48.888;9.134;2022-12-04T14:02:55;97657.13;;;3.25
6550;BMP280;15142;48.888;9.134;2022-12-04T14:05:27;97660.81;;;3.34
6550;BMP280;15142;48.888;9.134;2022-12-04T14:08:00;97653.03;;;3.35
6550;BMP280;15142;48.888;9.134;2022-12-04T14:10:31;97649.19;;;3.33
6550;BMP280;15142;48.888;9.134;2022-12-04T14:13:00;97647.34;;;3.28
6550;BMP280;15142;48.888;9.134;2022-12-04T14:15:28;97640.78;;;3.27
6550;BMP280;15142;48.888;9.134;2022-12-04T14:17:58;97641.56;;;3.28
6550;BMP280;15142;48.888;9.134;2022-12-04T14:20:26;97632.69;;;3.25
6550;BMP280;15142;48.888;9.134;2022-12-04T14:22:54;97622.44;;;3.32
6550;BMP280;15142;48.888;9.134;2022-12-04T14:25:31;97619.41;;;3.30
6550;BMP280;15142;48.888;9.134;2022-12-04T14:28:12;97627.72;;;3.30
6550;BMP280;15142;48.888;9.134;2022-12-04T14:30:39;97621.59;;;3.26
6550;BMP280;15142;48.888;9.134;2022-12-04T14:33:08;97618.47;;;3.19
6550;BMP280;15142;48.888;9.134;2022-12-04T14:35:42;97628.31;;;3.21
6550;BMP280;15142;48.888;9.134;2022-12-04T14:38:15;97635.13;;;3.20
6550;BMP280;15142;48.888;9.134;2022-12-04T14:40:48;97641.56;;;3.28
6550;BMP280;15142;48.888;9.134;2022-12-04T14:43:17;97641.16;;;3.19
6550;BMP280;15142;48.888;9.134;2022-12-04T14:45:49;97638.28;;;3.27
6550;BMP280;15142;48.888;9.134;2022-12-04T14:48:27;97652.94;;;3.30
6550;BMP280;15142;48.888;9.134;2022-12-04T14:51:04;97651.78;;;3.21